Boca Raton, FL (33431)

2:57 AM EDT on July 03, 2015 (GMT -0400)
Boca East | | Change Station
CLOSE
Current Station
Personal Weather Station
Location: Boca Raton, FL
Elevation: 46 ft
Nearby Weather Stations

Elev 46 ft 26.39 °N, 80.11 °W | Updated 9 minutes ago

Partly Cloudy
Partly Cloudy
82.7 °F
Feels Like 91 °F
N
0.0
Wind Variable Wind from South
Gusts 8.0 mph

Today
High -- | Low -- °F
--% Chance of Precip.
Yesterday
High -- | Low -- °F
Precip. -- in
6:31 AM 8:17 PM
Full, 98% visible
Pressure 30.06 in
Visibility 10.0 miles
Clouds Clear
Heat Index 91 °F
Dew Point 77 °F
Humidity 82%
Rainfall 0.00 in
Snow Depth Not available.
UV 0 out of 12
Pollen 4.20 out of 12
Air Quality Not available.
Flu Activity Not available.
METAR KPMP 030653Z AUTO 10008KT 10SM CLR 28/23 A3006 RMK AO2 SLP179 T02830233

More Conditions Fewer Conditions

Pressure 30.06 in
Visibility 10.0 miles
Clouds Clear
Heat Index 91 °F
Dew Point 77 °F
Humidity 82%
Rainfall 0.00 in
Snow Depth Not available.
UV 0 out of 12
Pollen 4.20 out of 12
Air Quality Not available.
Flu Activity Not available.
METAR KPMP 030653Z AUTO 10008KT 10SM CLR 28/23 A3006 RMK AO2 SLP179 T02830233

More Conditions Fewer Conditions

10-Day Weather Forecast

×

Almanac

Astronomy

Jul. 03, 2015 Rise Set
Actual Time
Civil Twilight
Nautical Twilight
Astronomical Twilight
Moon
Length of Visible Light
Length of Day
Tomorrow will be .
, % of the Moon is Illuminated

Today's Extremes

State Highs State Lows

Community

WunderPhotos

Upload Photos

1,834,634 photos uploaded!

WunderBlogs® & News

Nearby

Air Quality

  Air Quality AQ Index Pollutant
Not available.

Snow Depth

Station Depth Elevation

Earthquake Activity

City Distance Mag. Time & Date
Minimum magnitude displayed is 2.5.

Coastal Water Temperatures

Place Temperature

Stations

Nearby Weather Stations

Station Location Temp. Windchill Dew Point Humidity Wind Precip. Elev Updated Type